createdAt,value
2022-11-30T00:01:10.590Z,4.29
2022-11-30T00:03:37.088Z,4.23
2022-11-30T00:06:04.466Z,4.29
2022-11-30T00:08:34.462Z,4.28
2022-11-30T00:11:00.943Z,4.21
2022-11-30T00:13:27.779Z,4.16
2022-11-30T00:15:54.218Z,4.14
2022-11-30T00:18:20.654Z,4.19
2022-11-30T00:20:47.088Z,4.17
2022-11-30T00:23:13.493Z,4.21
2022-11-30T00:25:42.867Z,4.25
2022-11-30T00:28:09.402Z,4.26
2022-11-30T00:30:35.827Z,4.27
2022-11-30T00:33:02.437Z,4.21
2022-11-30T00:35:28.865Z,4.27
2022-11-30T00:37:55.280Z,4.31
2022-11-30T00:40:22.595Z,4.31
2022-11-30T00:42:49.378Z,4.33
2022-11-30T00:45:15.838Z,4.36
2022-11-30T00:47:42.236Z,4.38
2022-11-30T00:50:08.951Z,4.40
2022-11-30T00:52:35.340Z,4.34
2022-11-30T00:55:04.205Z,4.36
2022-11-30T00:57:30.987Z,4.35
2022-11-30T00:59:57.413Z,4.37
2022-11-30T01:02:24.098Z,4.34
2022-11-30T01:04:50.603Z,4.33
2022-11-30T01:07:17.032Z,4.36
2022-11-30T01:09:43.539Z,4.25
2022-11-30T01:12:09.923Z,4.28
2022-11-30T01:14:36.404Z,4.27
2022-11-30T01:17:02.780Z,4.24
2022-11-30T01:19:29.224Z,4.23
2022-11-30T01:21:55.661Z,4.24
2022-11-30T01:24:22.170Z,4.21
2022-11-30T01:26:48.525Z,4.25
2022-11-30T01:29:14.970Z,4.27
2022-11-30T01:31:41.419Z,4.25
2022-11-30T01:34:07.791Z,4.19
2022-11-30T01:36:34.224Z,4.20
2022-11-30T01:39:00.691Z,4.21
2022-11-30T01:41:32.289Z,4.22
2022-11-30T01:44:05.218Z,4.22
2022-11-30T01:46:50.101Z,4.21
2022-11-30T01:49:20.710Z,4.21
2022-11-30T01:51:51.852Z,4.23
2022-11-30T01:54:23.732Z,4.22
2022-11-30T01:56:52.396Z,4.25
2022-11-30T01:59:19.793Z,4.26
2022-11-30T02:01:46.624Z,4.26
2022-11-30T02:04:21.539Z,4.21
2022-11-30T02:06:48.146Z,4.22
2022-11-30T02:09:16.515Z,4.20
2022-11-30T02:11:42.886Z,4.14
2022-11-30T02:14:16.240Z,4.08
2022-11-30T02:16:48.979Z,4.05
2022-11-30T02:19:34.691Z,4.02
2022-11-30T02:22:19.492Z,4.00
2022-11-30T02:24:51.779Z,3.98
2022-11-30T02:27:22.248Z,3.95
2022-11-30T02:29:58.291Z,3.96
2022-11-30T02:32:42.791Z,3.97
2022-11-30T02:35:09.952Z,3.93
2022-11-30T02:37:37.429Z,3.95
2022-11-30T02:40:10.747Z,3.97
2022-11-30T02:42:37.215Z,3.98
2022-11-30T02:45:04.248Z,3.97
2022-11-30T02:47:34.891Z,3.97
2022-11-30T02:50:07.453Z,3.96
2022-11-30T02:52:34.565Z,3.97
2022-11-30T02:55:06.372Z,3.98
2022-11-30T02:57:32.984Z,4.00
2022-11-30T03:00:01.007Z,4.00
2022-11-30T03:02:27.500Z,4.00
2022-11-30T03:04:53.978Z,4.00
2022-11-30T03:07:20.515Z,4.01
2022-11-30T03:09:47.006Z,4.00
2022-11-30T03:12:13.422Z,4.02
2022-11-30T03:14:39.883Z,4.00
2022-11-30T03:17:07.052Z,4.02
2022-11-30T03:19:33.555Z,3.97
2022-11-30T03:22:00.088Z,3.97
2022-11-30T03:24:26.516Z,3.99
2022-11-30T03:26:52.962Z,4.00
2022-11-30T03:29:19.538Z,4.00
2022-11-30T03:31:46.006Z,3.99
2022-11-30T03:34:12.430Z,4.00
2022-11-30T03:36:38.848Z,4.03
2022-11-30T03:39:05.599Z,4.04
2022-11-30T03:41:31.985Z,4.04
2022-11-30T03:43:59.056Z,4.03
2022-11-30T03:46:27.160Z,4.04
2022-11-30T03:48:53.887Z,4.04
2022-11-30T03:51:20.337Z,4.03
2022-11-30T03:53:46.786Z,4.02
2022-11-30T03:56:14.222Z,3.93
2022-11-30T03:58:40.617Z,3.93
2022-11-30T04:01:15.552Z,3.89
2022-11-30T04:03:42.510Z,3.89
2022-11-30T04:06:10.237Z,3.93
2022-11-30T04:08:37.392Z,3.92
2022-11-30T04:11:04.646Z,3.91
2022-11-30T04:13:32.132Z,3.93
2022-11-30T04:15:59.057Z,3.94
2022-11-30T04:18:26.236Z,3.98
2022-11-30T04:20:54.065Z,4.00
2022-11-30T04:23:20.962Z,3.97
2022-11-30T04:25:48.122Z,3.99
2022-11-30T04:28:15.336Z,3.98
2022-11-30T04:30:41.864Z,3.96
2022-11-30T04:33:08.514Z,3.97
2022-11-30T04:35:38.983Z,3.96
2022-11-30T04:38:05.402Z,3.97
2022-11-30T04:40:31.796Z,3.98
2022-11-30T04:42:58.169Z,3.98
2022-11-30T04:45:24.543Z,3.99
2022-11-30T04:47:50.986Z,3.97
2022-11-30T04:50:17.505Z,3.93
2022-11-30T04:52:43.994Z,3.92
2022-11-30T04:55:10.349Z,3.91
2022-11-30T04:57:36.804Z,3.92
2022-11-30T05:00:04.812Z,3.83
2022-11-30T05:02:31.519Z,3.87
2022-11-30T05:05:03.833Z,3.88
2022-11-30T05:07:30.265Z,3.85
2022-11-30T05:09:56.658Z,3.84
2022-11-30T05:12:23.068Z,3.83
2022-11-30T05:14:49.659Z,3.84
2022-11-30T05:17:16.387Z,3.81
2022-11-30T05:19:42.845Z,3.83
2022-11-30T05:22:09.335Z,3.82
2022-11-30T05:24:35.772Z,3.79
2022-11-30T05:27:02.159Z,3.78
2022-11-30T05:29:28.613Z,3.80
2022-11-30T05:31:55.090Z,3.81
2022-11-30T05:34:21.451Z,3.76
2022-11-30T05:36:47.900Z,3.73
2022-11-30T05:39:15.645Z,3.74
2022-11-30T05:41:42.049Z,3.76
2022-11-30T05:44:08.944Z,3.78
2022-11-30T05:46:39.662Z,3.75
2022-11-30T05:49:07.502Z,3.75
2022-11-30T05:51:33.961Z,3.76
2022-11-30T05:54:00.428Z,3.69
2022-11-30T05:56:27.396Z,3.72
2022-11-30T05:58:53.813Z,3.72
2022-11-30T06:01:21.920Z,3.73
2022-11-30T06:03:48.464Z,3.73
2022-11-30T06:06:14.920Z,3.74
2022-11-30T06:08:41.600Z,3.67
2022-11-30T06:11:08.039Z,3.71
2022-11-30T06:13:34.499Z,3.73
2022-11-30T06:16:04.947Z,3.72
2022-11-30T06:18:31.887Z,3.67
2022-11-30T06:21:02.328Z,3.65
2022-11-30T06:23:28.877Z,3.64
2022-11-30T06:25:55.415Z,3.68
2022-11-30T06:28:21.888Z,3.63
2022-11-30T06:30:48.452Z,3.67
2022-11-30T06:33:14.911Z,3.67
2022-11-30T06:35:45.138Z,3.59
2022-11-30T06:38:11.580Z,3.59
2022-11-30T06:40:38.057Z,3.59
2022-11-30T06:43:04.453Z,3.57
2022-11-30T06:45:31.814Z,3.61
2022-11-30T06:47:58.344Z,3.64
2022-11-30T06:50:24.929Z,3.63
2022-11-30T06:52:51.326Z,3.62
2022-11-30T06:55:18.040Z,3.62
2022-11-30T06:57:44.445Z,3.60
2022-11-30T07:00:12.675Z,3.61
2022-11-30T07:02:39.108Z,3.62
2022-11-30T07:05:06.129Z,3.63
2022-11-30T07:07:32.907Z,3.67
2022-11-30T07:09:59.361Z,3.65
2022-11-30T07:12:25.886Z,3.64
2022-11-30T07:14:55.426Z,3.62
2022-11-30T07:17:22.066Z,3.67
2022-11-30T07:19:48.544Z,3.69
2022-11-30T07:22:17.462Z,3.62
2022-11-30T07:25:02.787Z,3.63
2022-11-30T07:27:32.631Z,3.63
2022-11-30T07:30:16.317Z,3.65
2022-11-30T07:32:45.512Z,3.58
2022-11-30T07:35:14.669Z,3.67
2022-11-30T07:37:41.293Z,3.61
2022-11-30T07:40:08.333Z,3.65
2022-11-30T07:42:34.796Z,3.70
2022-11-30T07:45:01.575Z,3.71
2022-11-30T07:47:29.218Z,3.74
2022-11-30T07:49:55.720Z,3.78
2022-11-30T07:52:22.082Z,3.77
2022-11-30T07:54:48.987Z,3.80
2022-11-30T07:57:15.702Z,3.81
2022-11-30T07:59:42.122Z,3.84
2022-11-30T08:02:10.403Z,3.84
2022-11-30T08:04:36.932Z,3.87
2022-11-30T08:07:03.434Z,3.87
2022-11-30T08:09:30.191Z,3.85
2022-11-30T08:11:56.803Z,3.85
2022-11-30T08:14:23.239Z,3.86
2022-11-30T08:16:49.847Z,3.83
2022-11-30T08:19:16.357Z,3.88
2022-11-30T08:21:42.766Z,3.93
2022-11-30T08:24:11.116Z,3.98
2022-11-30T08:26:37.606Z,3.99
2022-11-30T08:29:04.213Z,3.99
2022-11-30T08:31:32.058Z,4.01
2022-11-30T08:34:03.199Z,3.97
2022-11-30T08:36:30.269Z,3.91
2022-11-30T08:38:57.619Z,3.97
2022-11-30T08:41:24.197Z,4.01
2022-11-30T08:43:52.340Z,4.06
2022-11-30T08:49:21.361Z,4.10
2022-11-30T08:54:42.763Z,4.18
2022-11-30T08:57:09.416Z,4.21
2022-11-30T08:59:35.895Z,4.17
2022-11-30T09:02:02.457Z,4.10
2022-11-30T09:04:28.903Z,4.10
2022-11-30T09:06:58.881Z,4.01
2022-11-30T09:09:25.807Z,4.00
2022-11-30T09:11:52.450Z,3.99
2022-11-30T09:14:18.880Z,4.05
2022-11-30T09:16:45.340Z,4.00
2022-11-30T09:19:11.852Z,4.05
2022-11-30T09:21:38.397Z,4.07
2022-11-30T09:24:04.910Z,4.02
2022-11-30T09:26:31.325Z,4.03
2022-11-30T09:28:57.748Z,4.01
2022-11-30T09:31:25.148Z,4.03
2022-11-30T09:33:52.079Z,4.02
2022-11-30T09:36:20.070Z,4.04
2022-11-30T09:38:46.985Z,4.06
2022-11-30T09:41:22.655Z,4.11
2022-11-30T09:43:55.203Z,4.09
2022-11-30T09:46:25.490Z,4.11
2022-11-30T09:49:10.111Z,4.06
2022-11-30T09:51:44.213Z,4.05
2022-11-30T09:54:14.030Z,4.09
2022-11-30T09:56:42.614Z,4.12
2022-11-30T09:59:11.801Z,4.20
2022-11-30T10:01:39.565Z,4.18
2022-11-30T10:04:19.934Z,4.23
2022-11-30T10:06:51.475Z,4.25
2022-11-30T10:09:25.634Z,4.23
2022-11-30T10:12:01.138Z,4.23
2022-11-30T10:14:30.840Z,4.20
2022-11-30T10:17:00.336Z,4.21
2022-11-30T10:19:27.340Z,4.23
2022-11-30T10:21:53.748Z,4.23
2022-11-30T10:24:20.209Z,4.21
2022-11-30T10:26:56.870Z,4.02
2022-11-30T10:29:38.001Z,4.14
2022-11-30T10:32:13.607Z,4.19
2022-11-30T10:34:41.418Z,4.12
2022-11-30T10:37:13.274Z,4.09
2022-11-30T10:39:59.140Z,4.10
2022-11-30T10:42:28.388Z,4.13
2022-11-30T10:45:04.453Z,4.20
2022-11-30T10:47:33.976Z,4.26
2022-11-30T10:50:01.003Z,4.30
2022-11-30T10:52:35.783Z,4.24
2022-11-30T10:55:05.108Z,4.33
2022-11-30T10:57:33.012Z,4.35
2022-11-30T11:00:00.911Z,4.40
2022-11-30T11:02:33.494Z,4.36
2022-11-30T11:05:18.813Z,4.27
2022-11-30T11:08:07.370Z,4.28
2022-11-30T11:10:43.273Z,4.33
2022-11-30T11:13:20.318Z,4.38
2022-11-30T11:15:57.779Z,4.40
2022-11-30T11:18:27.139Z,4.36
2022-11-30T11:21:04.323Z,4.35
2022-11-30T11:23:40.152Z,4.29
2022-11-30T11:26:08.134Z,4.29
2022-11-30T11:28:36.027Z,4.28
2022-11-30T11:31:15.493Z,4.29
2022-11-30T11:33:49.871Z,4.28
2022-11-30T11:36:24.390Z,4.28
2022-11-30T11:38:50.879Z,4.21
2022-11-30T11:41:24.401Z,4.16
2022-11-30T11:44:09.220Z,4.20
2022-11-30T11:46:52.239Z,4.25
2022-11-30T11:49:21.295Z,4.23
2022-11-30T11:51:59.033Z,4.24
2022-11-30T11:54:45.719Z,4.22
2022-11-30T11:57:13.848Z,4.19
2022-11-30T11:59:40.258Z,4.12
2022-11-30T12:02:28.343Z,4.11
2022-11-30T12:04:57.730Z,4.10
2022-11-30T12:07:30.266Z,4.15
2022-11-30T12:10:21.793Z,4.13
2022-11-30T12:12:55.104Z,4.23
2022-11-30T12:15:32.902Z,4.28
2022-11-30T12:18:06.648Z,4.28
2022-11-30T12:21:03.515Z,4.28
2022-11-30T12:23:38.006Z,4.26
2022-11-30T12:26:04.449Z,4.25
2022-11-30T12:28:45.857Z,4.13
2022-11-30T12:31:12.424Z,4.15
2022-11-30T12:33:38.883Z,4.13
2022-11-30T12:36:24.184Z,4.05
2022-11-30T12:38:53.638Z,4.06
2022-11-30T12:41:30.547Z,3.98
2022-11-30T12:44:09.613Z,3.93
2022-11-30T12:46:48.447Z,3.93
2022-11-30T12:49:33.710Z,3.84
2022-11-30T12:52:14.195Z,3.83
2022-11-30T12:54:46.462Z,3.80
2022-11-30T12:57:15.979Z,3.85
2022-11-30T13:00:18.387Z,3.90
2022-11-30T13:02:44.812Z,3.86
2022-11-30T13:05:15.360Z,3.81
2022-11-30T13:07:41.835Z,3.81
2022-11-30T13:10:27.297Z,3.80
2022-11-30T13:12:54.975Z,3.84
2022-11-30T13:15:29.415Z,3.77
2022-11-30T13:17:56.476Z,3.76
2022-11-30T13:20:35.226Z,3.73
2022-11-30T13:23:10.704Z,3.76
2022-11-30T13:26:07.507Z,3.79
2022-11-30T13:28:32.708Z,3.73
2022-11-30T13:31:08.848Z,3.73
2022-11-30T13:33:35.421Z,3.77
2022-11-30T13:36:06.389Z,3.79
2022-11-30T13:38:37.726Z,3.79
2022-11-30T13:41:05.779Z,3.77
2022-11-30T13:43:37.026Z,3.70
2022-11-30T13:46:23.639Z,3.71
2022-11-30T13:49:08.806Z,3.66
2022-11-30T13:51:36.852Z,3.60
2022-11-30T13:54:27.733Z,3.57
2022-11-30T13:56:54.522Z,3.46
2022-11-30T13:59:24.087Z,3.48
2022-11-30T14:02:13.520Z,3.35
2022-11-30T14:04:46.640Z,3.41
2022-11-30T14:07:32.500Z,3.43
2022-11-30T14:09:59.480Z,3.41
2022-11-30T14:12:37.059Z,3.37
2022-11-30T14:15:26.362Z,3.35
2022-11-30T14:17:56.027Z,3.35
2022-11-30T14:20:25.149Z,3.27
2022-11-30T14:22:52.043Z,3.25
2022-11-30T14:25:20.408Z,3.24
2022-11-30T14:27:47.800Z,3.25
2022-11-30T14:30:18.579Z,3.09
2022-11-30T14:32:51.885Z,3.05
2022-11-30T14:35:19.845Z,3.01
2022-11-30T14:37:56.586Z,2.94
2022-11-30T14:40:24.899Z,2.97
2022-11-30T14:42:56.271Z,2.98
2022-11-30T14:45:27.756Z,2.96
2022-11-30T14:48:04.845Z,3.00
2022-11-30T14:50:31.500Z,3.03
2022-11-30T14:53:04.166Z,3.02
2022-11-30T14:55:31.002Z,3.08
2022-11-30T14:58:00.351Z,3.05
2022-11-30T15:00:29.111Z,3.06
2022-11-30T15:02:55.532Z,3.09
2022-11-30T15:05:23.998Z,3.14
2022-11-30T15:07:50.661Z,3.17
2022-11-30T15:10:29.737Z,3.18
2022-11-30T15:12:57.145Z,3.08
2022-11-30T15:15:24.562Z,2.99
2022-11-30T15:17:54.029Z,3.05
2022-11-30T15:20:25.983Z,3.08
2022-11-30T15:22:53.648Z,3.10
2022-11-30T15:25:21.185Z,3.09
2022-11-30T15:27:47.739Z,3.00
2022-11-30T15:30:15.977Z,3.06
2022-11-30T15:32:46.668Z,3.02
2022-11-30T15:35:18.607Z,3.07
2022-11-30T15:37:45.191Z,3.10
2022-11-30T15:40:15.944Z,3.08
2022-11-30T15:42:43.924Z,3.08
2022-11-30T15:45:13.350Z,3.08
2022-11-30T15:47:39.862Z,3.05
2022-11-30T15:50:25.275Z,3.06
2022-11-30T15:52:52.640Z,2.94
2022-11-30T15:55:37.904Z,2.99
2022-11-30T15:58:04.418Z,3.03
2022-11-30T16:00:30.827Z,3.00
2022-11-30T16:03:15.686Z,2.96
2022-11-30T16:05:53.393Z,2.95
2022-11-30T16:08:19.846Z,2.92
2022-11-30T16:10:46.396Z,2.96
2022-11-30T16:13:14.019Z,2.99
2022-11-30T16:15:43.811Z,2.89
2022-11-30T16:18:13.382Z,2.91
2022-11-30T16:20:43.382Z,2.82
2022-11-30T16:23:15.386Z,2.83
2022-11-30T16:25:42.881Z,2.86
2022-11-30T16:28:09.894Z,2.80
2022-11-30T16:30:36.416Z,2.72
2022-11-30T16:33:03.303Z,2.67
2022-11-30T16:35:35.173Z,2.73
2022-11-30T16:38:01.723Z,2.72
2022-11-30T16:40:32.704Z,2.68
2022-11-30T16:43:01.719Z,2.70
2022-11-30T16:45:33.044Z,2.70
2022-11-30T16:47:59.499Z,2.60
2022-11-30T16:50:25.917Z,2.59
2022-11-30T16:52:52.280Z,2.62
2022-11-30T16:55:19.609Z,2.64
2022-11-30T16:57:46.251Z,2.67
2022-11-30T17:00:13.937Z,2.68
2022-11-30T17:02:59.672Z,2.70
2022-11-30T17:05:26.609Z,2.72
2022-11-30T17:07:53.656Z,2.68
2022-11-30T17:10:20.344Z,2.68
2022-11-30T17:12:46.916Z,2.68
2022-11-30T17:15:15.913Z,2.70
2022-11-30T17:17:43.644Z,2.71
2022-11-30T17:20:10.395Z,2.74
2022-11-30T17:22:38.657Z,2.66
2022-11-30T17:25:06.272Z,2.64
2022-11-30T17:27:32.745Z,2.71
2022-11-30T17:29:59.282Z,2.53
2022-11-30T17:32:25.676Z,2.55
2022-11-30T17:34:52.091Z,2.54
2022-11-30T17:37:18.531Z,2.50
2022-11-30T17:39:45.181Z,2.47
2022-11-30T17:42:11.643Z,2.48
2022-11-30T17:44:38.058Z,2.58
2022-11-30T17:47:04.633Z,2.59
2022-11-30T17:49:31.074Z,2.54
2022-11-30T17:51:57.537Z,2.51
2022-11-30T17:54:23.946Z,2.52
2022-11-30T17:56:52.649Z,2.57
2022-11-30T17:59:19.395Z,2.64
2022-11-30T18:01:46.029Z,2.60
2022-11-30T18:04:13.476Z,2.61
2022-11-30T18:06:39.959Z,2.67
2022-11-30T18:09:06.463Z,2.69
2022-11-30T18:11:33.813Z,2.73
2022-11-30T18:14:03.022Z,2.72
2022-11-30T18:16:31.026Z,2.74
2022-11-30T18:18:58.686Z,2.68
2022-11-30T18:21:26.492Z,2.74
2022-11-30T18:23:53.717Z,2.78
2022-11-30T18:26:22.080Z,2.82
2022-11-30T18:28:52.912Z,2.86
2022-11-30T18:31:19.560Z,2.88
2022-11-30T18:33:46.019Z,2.93
2022-11-30T18:36:12.520Z,2.94
2022-11-30T18:38:41.465Z,2.98
2022-11-30T18:41:07.948Z,2.95
2022-11-30T18:43:34.638Z,2.94
2022-11-30T18:46:05.054Z,2.90
2022-11-30T18:48:31.762Z,2.93
2022-11-30T18:50:58.403Z,2.97
2022-11-30T18:53:24.943Z,2.99
2022-11-30T18:55:51.435Z,3.03
2022-11-30T18:58:17.914Z,3.03
2022-11-30T19:00:44.375Z,2.97
2022-11-30T19:03:10.886Z,2.97
2022-11-30T19:05:39.828Z,3.00
2022-11-30T19:08:07.910Z,3.03
2022-11-30T19:10:34.855Z,3.05
2022-11-30T19:13:01.763Z,3.03
2022-11-30T19:15:28.487Z,3.03
2022-11-30T19:17:55.534Z,2.98
2022-11-30T19:20:22.914Z,2.96
2022-11-30T19:22:49.310Z,2.89
2022-11-30T19:25:18.868Z,2.84
2022-11-30T19:27:45.701Z,2.83
2022-11-30T19:30:12.545Z,2.92
2022-11-30T19:32:40.270Z,2.92
2022-11-30T19:35:07.039Z,2.92
2022-11-30T19:37:33.580Z,2.95
2022-11-30T19:40:00.084Z,2.96
2022-11-30T19:42:26.520Z,2.97
2022-11-30T19:44:52.927Z,2.72
2022-11-30T19:47:19.380Z,2.68
2022-11-30T19:49:48.901Z,2.79
2022-11-30T19:52:15.453Z,2.80
2022-11-30T19:54:41.917Z,2.79
2022-11-30T19:57:10.394Z,2.63
2022-11-30T19:59:36.871Z,2.60
2022-11-30T20:02:03.329Z,2.52
2022-11-30T20:04:29.847Z,2.48
2022-11-30T20:06:58.944Z,2.53
2022-11-30T20:09:25.385Z,2.59
2022-11-30T20:11:53.110Z,2.64
2022-11-30T20:14:22.196Z,2.70
2022-11-30T20:16:48.978Z,2.75
2022-11-30T20:19:16.205Z,2.79
2022-11-30T20:21:43.897Z,2.76
2022-11-30T20:24:11.843Z,2.80
2022-11-30T20:26:40.088Z,2.83
2022-11-30T20:29:07.191Z,2.86
2022-11-30T20:31:34.818Z,2.86
2022-11-30T20:34:04.104Z,2.86
2022-11-30T20:36:30.775Z,2.86
2022-11-30T20:38:57.956Z,2.88
2022-11-30T20:41:24.714Z,2.91
2022-11-30T20:43:51.169Z,2.93
2022-11-30T20:46:19.471Z,2.97
2022-11-30T20:48:46.248Z,2.99
2022-11-30T20:51:30.088Z,3.00
2022-11-30T20:53:59.367Z,3.02
2022-11-30T20:56:25.797Z,3.05
2022-11-30T20:58:52.293Z,3.07
2022-11-30T21:01:19.849Z,3.09
2022-11-30T21:03:46.435Z,3.09
2022-11-30T21:06:13.612Z,3.13
2022-11-30T21:08:40.798Z,3.13
2022-11-30T21:11:07.302Z,3.13
2022-11-30T21:13:34.392Z,3.14
2022-11-30T21:16:06.904Z,3.15
2022-11-30T21:18:34.387Z,3.15
2022-11-30T21:21:02.218Z,3.15
2022-11-30T21:23:28.663Z,3.14
2022-11-30T21:25:55.114Z,3.16
2022-11-30T21:28:22.117Z,3.15
2022-11-30T21:30:48.625Z,3.16
2022-11-30T21:33:15.155Z,3.15
2022-11-30T21:35:41.643Z,3.11
2022-11-30T21:38:08.051Z,3.12
2022-11-30T21:40:34.420Z,3.04
2022-11-30T21:43:00.923Z,2.99
2022-11-30T21:45:27.669Z,2.96
2022-11-30T21:47:54.090Z,2.98
2022-11-30T21:50:24.431Z,3.00
2022-11-30T21:52:53.573Z,3.03
2022-11-30T21:55:19.942Z,2.88
2022-11-30T21:57:46.407Z,2.87
2022-11-30T22:00:14.391Z,2.96
2022-11-30T22:02:40.964Z,3.00
2022-11-30T22:05:07.622Z,1.86
2022-11-30T22:07:34.112Z,3.00
2022-11-30T22:10:00.594Z,2.95
2022-11-30T22:12:27.638Z,2.85
2022-11-30T22:14:54.423Z,2.88
2022-11-30T22:17:20.884Z,2.76
2022-11-30T22:19:47.765Z,2.66
2022-11-30T22:22:14.432Z,2.58
2022-11-30T22:24:40.906Z,2.60
2022-11-30T22:27:07.338Z,2.60
2022-11-30T22:29:33.854Z,2.54
2022-11-30T22:32:00.253Z,2.56
2022-11-30T22:34:26.809Z,2.57
2022-11-30T22:36:53.317Z,2.59
2022-11-30T22:39:20.749Z,2.59
2022-11-30T22:41:53.089Z,2.54
2022-11-30T22:44:21.512Z,2.48
2022-11-30T22:46:48.012Z,2.44
2022-11-30T22:49:20.252Z,2.47
2022-11-30T22:51:47.740Z,2.47
2022-11-30T22:54:14.379Z,2.50
2022-11-30T22:56:41.569Z,2.51
2022-11-30T22:59:10.688Z,2.51
2022-11-30T23:01:38.535Z,2.50
2022-11-30T23:04:06.588Z,2.49
2022-11-30T23:06:33.323Z,2.47
2022-11-30T23:09:00.657Z,2.42
2022-11-30T23:11:27.624Z,2.38
2022-11-30T23:13:54.080Z,2.31
2022-11-30T23:16:21.085Z,2.28
2022-11-30T23:18:51.560Z,2.27
2022-11-30T23:21:20.103Z,2.21
2022-11-30T23:23:47.180Z,2.14
2022-11-30T23:26:15.095Z,2.18
2022-11-30T23:28:42.566Z,2.18
2022-11-30T23:31:34.174Z,2.18
2022-11-30T23:34:00.611Z,2.19
2022-11-30T23:36:27.119Z,2.20
2022-11-30T23:38:55.395Z,2.20
2022-11-30T23:41:21.804Z,2.15
2022-11-30T23:43:48.230Z,2.03
2022-11-30T23:46:14.643Z,1.88
2022-11-30T23:48:41.121Z,1.89
2022-11-30T23:51:07.891Z,1.85
2022-11-30T23:53:34.463Z,1.87
2022-11-30T23:56:05.623Z,1.88
2022-11-30T23:58:32.634Z,1.85
